sensor_id;sensor_type;location;lat;lon;timestamp;P1;durP1;ratioP1;P2;durP2;ratioP2
58366;SDS011;57745;42.524;12.052;2024-03-29T00:00:52;17.83;;;4.28;;
58366;SDS011;57745;42.524;12.052;2024-03-29T00:03:18;15.80;;;3.28;;
58366;SDS011;57745;42.524;12.052;2024-03-29T00:05:43;21.50;;;2.90;;
58366;SDS011;57745;42.524;12.052;2024-03-29T00:08:09;14.82;;;3.03;;
58366;SDS011;57745;42.524;12.052;2024-03-29T00:10:34;14.15;;;2.78;;
58366;SDS011;57745;42.524;12.052;2024-03-29T00:13:00;13.68;;;2.85;;
58366;SDS011;57745;42.524;12.052;2024-03-29T00:15:25;12.70;;;2.67;;
58366;SDS011;57745;42.524;12.052;2024-03-29T00:17:51;14.15;;;2.67;;
58366;SDS011;57745;42.524;12.052;2024-03-29T00:20:16;16.73;;;2.60;;
58366;SDS011;57745;42.524;12.052;2024-03-29T00:22:42;18.67;;;2.75;;
58366;SDS011;57745;42.524;12.052;2024-03-29T00:25:07;16.95;;;2.65;;
58366;SDS011;57745;42.524;12.052;2024-03-29T00:27:33;14.73;;;2.13;;
58366;SDS011;57745;42.524;12.052;2024-03-29T00:29:59;14.60;;;2.40;;
58366;SDS011;57745;42.524;12.052;2024-03-29T00:32:25;20.83;;;3.53;;
58366;SDS011;57745;42.524;12.052;2024-03-29T00:34:51;15.30;;;2.67;;
58366;SDS011;57745;42.524;12.052;2024-03-29T00:37:17;19.73;;;3.40;;
58366;SDS011;57745;42.524;12.052;2024-03-29T00:39:43;12.98;;;2.50;;
58366;SDS011;57745;42.524;12.052;2024-03-29T00:42:09;16.27;;;2.80;;
58366;SDS011;57745;42.524;12.052;2024-03-29T00:44:37;15.55;;;2.67;;
58366;SDS011;57745;42.524;12.052;2024-03-29T00:47:04;18.17;;;3.15;;
58366;SDS011;57745;42.524;12.052;2024-03-29T00:49:30;18.75;;;2.85;;
58366;SDS011;57745;42.524;12.052;2024-03-29T00:51:55;16.98;;;2.92;;
58366;SDS011;57745;42.524;12.052;2024-03-29T00:54:21;24.70;;;3.17;;
58366;SDS011;57745;42.524;12.052;2024-03-29T00:56:48;13.13;;;2.85;;
58366;SDS011;57745;42.524;12.052;2024-03-29T00:59:14;17.35;;;3.40;;
58366;SDS011;57745;42.524;12.052;2024-03-29T01:01:40;17.50;;;3.42;;
58366;SDS011;57745;42.524;12.052;2024-03-29T01:04:05;13.65;;;2.47;;
58366;SDS011;57745;42.524;12.052;2024-03-29T01:06:31;12.13;;;2.53;;
58366;SDS011;57745;42.524;12.052;2024-03-29T01:08:56;17.25;;;3.17;;
58366;SDS011;57745;42.524;12.052;2024-03-29T01:11:22;18.75;;;2.47;;
58366;SDS011;57745;42.524;12.052;2024-03-29T01:13:47;18.52;;;3.80;;
58366;SDS011;57745;42.524;12.052;2024-03-29T01:16:12;18.60;;;3.13;;
58366;SDS011;57745;42.524;12.052;2024-03-29T01:18:38;18.48;;;2.47;;
58366;SDS011;57745;42.524;12.052;2024-03-29T01:21:04;14.02;;;2.40;;
58366;SDS011;57745;42.524;12.052;2024-03-29T01:23:29;18.30;;;3.33;;
58366;SDS011;57745;42.524;12.052;2024-03-29T01:25:55;17.95;;;2.38;;
58366;SDS011;57745;42.524;12.052;2024-03-29T01:28:20;17.20;;;3.38;;
58366;SDS011;57745;42.524;12.052;2024-03-29T01:30:52;14.15;;;2.83;;
58366;SDS011;57745;42.524;12.052;2024-03-29T01:33:19;12.95;;;2.05;;
58366;SDS011;57745;42.524;12.052;2024-03-29T01:35:46;18.75;;;3.42;;
58366;SDS011;57745;42.524;12.052;2024-03-29T01:38:12;20.85;;;4.05;;
58366;SDS011;57745;42.524;12.052;2024-03-29T01:40:37;26.05;;;4.18;;
58366;SDS011;57745;42.524;12.052;2024-03-29T01:43:02;21.13;;;3.15;;
58366;SDS011;57745;42.524;12.052;2024-03-29T01:45:29;17.58;;;2.30;;
58366;SDS011;57745;42.524;12.052;2024-03-29T01:47:55;17.15;;;3.05;;
58366;SDS011;57745;42.524;12.052;2024-03-29T01:50:21;14.48;;;2.50;;
58366;SDS011;57745;42.524;12.052;2024-03-29T01:52:47;19.05;;;3.17;;
58366;SDS011;57745;42.524;12.052;2024-03-29T01:55:14;20.58;;;3.00;;
58366;SDS011;57745;42.524;12.052;2024-03-29T01:57:39;12.73;;;2.85;;
58366;SDS011;57745;42.524;12.052;2024-03-29T02:00:06;17.23;;;3.63;;
58366;SDS011;57745;42.524;12.052;2024-03-29T02:02:33;17.08;;;3.42;;
58366;SDS011;57745;42.524;12.052;2024-03-29T02:04:58;15.13;;;3.58;;
58366;SDS011;57745;42.524;12.052;2024-03-29T02:07:24;17.95;;;3.53;;
58366;SDS011;57745;42.524;12.052;2024-03-29T02:09:50;18.17;;;2.88;;
58366;SDS011;57745;42.524;12.052;2024-03-29T02:12:16;17.67;;;2.92;;
58366;SDS011;57745;42.524;12.052;2024-03-29T02:14:41;13.50;;;2.78;;
58366;SDS011;57745;42.524;12.052;2024-03-29T02:17:07;15.45;;;2.55;;
58366;SDS011;57745;42.524;12.052;2024-03-29T02:19:33;19.77;;;2.90;;
58366;SDS011;57745;42.524;12.052;2024-03-29T02:21:59;19.98;;;3.60;;
58366;SDS011;57745;42.524;12.052;2024-03-29T02:24:30;13.02;;;2.92;;
58366;SDS011;57745;42.524;12.052;2024-03-29T02:26:56;19.40;;;3.25;;
58366;SDS011;57745;42.524;12.052;2024-03-29T02:29:22;20.58;;;3.35;;
58366;SDS011;57745;42.524;12.052;2024-03-29T02:31:48;15.10;;;2.55;;
58366;SDS011;57745;42.524;12.052;2024-03-29T02:34:14;18.15;;;2.60;;
58366;SDS011;57745;42.524;12.052;2024-03-29T02:36:40;13.35;;;3.28;;
58366;SDS011;57745;42.524;12.052;2024-03-29T02:39:07;18.77;;;3.75;;
58366;SDS011;57745;42.524;12.052;2024-03-29T02:41:32;12.18;;;2.58;;
58366;SDS011;57745;42.524;12.052;2024-03-29T02:43:58;11.70;;;2.72;;
58366;SDS011;57745;42.524;12.052;2024-03-29T02:46:23;20.08;;;3.03;;
58366;SDS011;57745;42.524;12.052;2024-03-29T02:48:49;16.73;;;2.17;;
58366;SDS011;57745;42.524;12.052;2024-03-29T02:51:14;11.73;;;2.00;;
58366;SDS011;57745;42.524;12.052;2024-03-29T02:53:40;16.17;;;2.75;;
58366;SDS011;57745;42.524;12.052;2024-03-29T02:56:05;13.95;;;2.85;;
58366;SDS011;57745;42.524;12.052;2024-03-29T02:58:36;15.57;;;2.63;;
58366;SDS011;57745;42.524;12.052;2024-03-29T03:01:05;18.63;;;3.55;;
58366;SDS011;57745;42.524;12.052;2024-03-29T03:03:34;18.38;;;2.65;;
58366;SDS011;57745;42.524;12.052;2024-03-29T03:06:00;20.85;;;2.75;;
58366;SDS011;57745;42.524;12.052;2024-03-29T03:08:25;13.40;;;2.30;;
58366;SDS011;57745;42.524;12.052;2024-03-29T03:11:09;14.23;;;2.55;;
58366;SDS011;57745;42.524;12.052;2024-03-29T03:13:35;20.52;;;3.03;;
58366;SDS011;57745;42.524;12.052;2024-03-29T03:16:00;25.25;;;3.45;;
58366;SDS011;57745;42.524;12.052;2024-03-29T03:18:26;21.02;;;4.13;;
58366;SDS011;57745;42.524;12.052;2024-03-29T03:20:51;15.63;;;2.72;;
58366;SDS011;57745;42.524;12.052;2024-03-29T03:23:22;18.83;;;2.60;;
58366;SDS011;57745;42.524;12.052;2024-03-29T03:25:55;16.55;;;2.50;;
58366;SDS011;57745;42.524;12.052;2024-03-29T03:28:30;19.65;;;2.88;;
58366;SDS011;57745;42.524;12.052;2024-03-29T03:30:56;16.23;;;2.83;;
58366;SDS011;57745;42.524;12.052;2024-03-29T03:33:22;21.63;;;3.00;;
58366;SDS011;57745;42.524;12.052;2024-03-29T03:35:48;14.38;;;1.88;;
58366;SDS011;57745;42.524;12.052;2024-03-29T03:38:13;16.15;;;2.80;;
58366;SDS011;57745;42.524;12.052;2024-03-29T03:40:40;18.92;;;3.05;;
58366;SDS011;57745;42.524;12.052;2024-03-29T03:43:06;20.17;;;3.05;;
58366;SDS011;57745;42.524;12.052;2024-03-29T03:48:01;19.98;;;2.58;;
58366;SDS011;57745;42.524;12.052;2024-03-29T03:50:28;20.88;;;3.08;;
58366;SDS011;57745;42.524;12.052;2024-03-29T03:52:55;14.10;;;2.47;;
58366;SDS011;57745;42.524;12.052;2024-03-29T03:55:21;18.27;;;2.97;;
58366;SDS011;57745;42.524;12.052;2024-03-29T03:57:46;17.33;;;2.50;;
58366;SDS011;57745;42.524;12.052;2024-03-29T04:00:12;20.33;;;3.42;;
58366;SDS011;57745;42.524;12.052;2024-03-29T04:02:37;16.63;;;2.33;;
58366;SDS011;57745;42.524;12.052;2024-03-29T04:05:03;14.15;;;3.10;;
58366;SDS011;57745;42.524;12.052;2024-03-29T04:07:29;19.33;;;2.95;;
58366;SDS011;57745;42.524;12.052;2024-03-29T04:09:54;18.08;;;3.25;;
58366;SDS011;57745;42.524;12.052;2024-03-29T04:12:20;18.73;;;2.85;;
58366;SDS011;57745;42.524;12.052;2024-03-29T04:14:45;22.38;;;3.83;;
58366;SDS011;57745;42.524;12.052;2024-03-29T04:17:11;24.95;;;3.70;;
58366;SDS011;57745;42.524;12.052;2024-03-29T04:19:36;19.02;;;2.83;;
58366;SDS011;57745;42.524;12.052;2024-03-29T04:22:01;25.50;;;3.78;;
58366;SDS011;57745;42.524;12.052;2024-03-29T04:24:30;23.48;;;3.92;;
58366;SDS011;57745;42.524;12.052;2024-03-29T04:26:56;21.00;;;3.95;;
58366;SDS011;57745;42.524;12.052;2024-03-29T04:29:22;30.35;;;4.68;;
58366;SDS011;57745;42.524;12.052;2024-03-29T04:31:47;22.25;;;3.63;;
58366;SDS011;57745;42.524;12.052;2024-03-29T04:34:13;24.38;;;2.70;;
58366;SDS011;57745;42.524;12.052;2024-03-29T04:36:38;21.08;;;3.97;;
58366;SDS011;57745;42.524;12.052;2024-03-29T04:39:04;21.73;;;3.80;;
58366;SDS011;57745;42.524;12.052;2024-03-29T04:41:29;23.00;;;3.78;;
58366;SDS011;57745;42.524;12.052;2024-03-29T04:43:59;17.60;;;3.05;;
58366;SDS011;57745;42.524;12.052;2024-03-29T04:48:57;27.75;;;4.75;;
58366;SDS011;57745;42.524;12.052;2024-03-29T04:51:23;28.77;;;3.42;;
58366;SDS011;57745;42.524;12.052;2024-03-29T04:53:49;22.02;;;3.30;;
58366;SDS011;57745;42.524;12.052;2024-03-29T04:56:14;27.25;;;4.38;;
58366;SDS011;57745;42.524;12.052;2024-03-29T04:58:40;21.13;;;3.25;;
58366;SDS011;57745;42.524;12.052;2024-03-29T05:01:05;21.35;;;3.00;;
58366;SDS011;57745;42.524;12.052;2024-03-29T05:03:32;30.27;;;4.55;;
58366;SDS011;57745;42.524;12.052;2024-03-29T05:05:57;24.35;;;2.88;;
58366;SDS011;57745;42.524;12.052;2024-03-29T05:08:23;29.75;;;3.20;;
58366;SDS011;57745;42.524;12.052;2024-03-29T05:10:49;17.75;;;4.22;;
58366;SDS011;57745;42.524;12.052;2024-03-29T05:13:15;25.38;;;3.10;;
58366;SDS011;57745;42.524;12.052;2024-03-29T05:15:42;20.75;;;3.20;;
58366;SDS011;57745;42.524;12.052;2024-03-29T05:18:08;32.30;;;3.85;;
58366;SDS011;57745;42.524;12.052;2024-03-29T05:20:34;24.15;;;2.70;;
58366;SDS011;57745;42.524;12.052;2024-03-29T05:22:59;20.73;;;3.35;;
58366;SDS011;57745;42.524;12.052;2024-03-29T05:25:25;25.90;;;3.30;;
58366;SDS011;57745;42.524;12.052;2024-03-29T05:27:51;26.83;;;3.53;;
58366;SDS011;57745;42.524;12.052;2024-03-29T05:30:16;27.60;;;2.90;;
58366;SDS011;57745;42.524;12.052;2024-03-29T05:32:42;25.58;;;3.50;;
58366;SDS011;57745;42.524;12.052;2024-03-29T05:35:09;23.27;;;3.30;;
58366;SDS011;57745;42.524;12.052;2024-03-29T05:37:35;19.05;;;2.63;;
58366;SDS011;57745;42.524;12.052;2024-03-29T05:40:01;20.33;;;3.20;;
58366;SDS011;57745;42.524;12.052;2024-03-29T05:42:30;32.78;;;5.28;;
58366;SDS011;57745;42.524;12.052;2024-03-29T05:44:56;15.93;;;2.63;;
58366;SDS011;57745;42.524;12.052;2024-03-29T05:47:22;23.02;;;3.63;;
58366;SDS011;57745;42.524;12.052;2024-03-29T05:49:48;19.95;;;2.67;;
58366;SDS011;57745;42.524;12.052;2024-03-29T05:52:14;23.50;;;2.85;;
58366;SDS011;57745;42.524;12.052;2024-03-29T05:54:41;22.92;;;3.45;;
58366;SDS011;57745;42.524;12.052;2024-03-29T05:57:07;25.63;;;3.70;;
58366;SDS011;57745;42.524;12.052;2024-03-29T05:59:33;21.25;;;3.25;;
58366;SDS011;57745;42.524;12.052;2024-03-29T06:01:59;20.58;;;3.25;;
58366;SDS011;57745;42.524;12.052;2024-03-29T06:04:25;17.95;;;2.70;;
58366;SDS011;57745;42.524;12.052;2024-03-29T06:06:57;23.23;;;3.13;;
58366;SDS011;57745;42.524;12.052;2024-03-29T06:09:25;22.80;;;3.03;;
58366;SDS011;57745;42.524;12.052;2024-03-29T06:11:51;27.63;;;3.38;;
58366;SDS011;57745;42.524;12.052;2024-03-29T06:14:18;21.95;;;3.28;;
58366;SDS011;57745;42.524;12.052;2024-03-29T06:17:02;18.40;;;3.58;;
58366;SDS011;57745;42.524;12.052;2024-03-29T06:19:46;30.80;;;3.88;;
58366;SDS011;57745;42.524;12.052;2024-03-29T06:22:13;24.02;;;3.17;;
58366;SDS011;57745;42.524;12.052;2024-03-29T06:24:38;25.10;;;2.85;;
58366;SDS011;57745;42.524;12.052;2024-03-29T06:27:04;29.15;;;3.22;;
58366;SDS011;57745;42.524;12.052;2024-03-29T06:29:30;22.70;;;3.30;;
58366;SDS011;57745;42.524;12.052;2024-03-29T06:31:55;19.00;;;3.28;;
58366;SDS011;57745;42.524;12.052;2024-03-29T06:34:21;27.17;;;3.33;;
58366;SDS011;57745;42.524;12.052;2024-03-29T06:36:47;28.27;;;3.42;;
58366;SDS011;57745;42.524;12.052;2024-03-29T06:39:13;19.05;;;3.55;;
58366;SDS011;57745;42.524;12.052;2024-03-29T06:41:38;20.10;;;2.80;;
58366;SDS011;57745;42.524;12.052;2024-03-29T06:44:03;21.13;;;3.67;;
58366;SDS011;57745;42.524;12.052;2024-03-29T06:46:29;18.10;;;3.03;;
58366;SDS011;57745;42.524;12.052;2024-03-29T06:48:54;14.73;;;2.70;;
58366;SDS011;57745;42.524;12.052;2024-03-29T06:51:20;23.85;;;2.97;;
58366;SDS011;57745;42.524;12.052;2024-03-29T06:53:45;24.65;;;3.63;;
58366;SDS011;57745;42.524;12.052;2024-03-29T06:56:11;24.40;;;3.55;;
58366;SDS011;57745;42.524;12.052;2024-03-29T06:58:37;20.35;;;3.00;;
58366;SDS011;57745;42.524;12.052;2024-03-29T07:01:02;19.65;;;3.40;;
58366;SDS011;57745;42.524;12.052;2024-03-29T07:03:28;24.50;;;3.20;;
58366;SDS011;57745;42.524;12.052;2024-03-29T07:05:53;27.17;;;3.92;;
58366;SDS011;57745;42.524;12.052;2024-03-29T07:08:18;29.02;;;2.95;;
58366;SDS011;57745;42.524;12.052;2024-03-29T07:10:44;22.88;;;2.80;;
58366;SDS011;57745;42.524;12.052;2024-03-29T07:13:09;15.52;;;2.92;;
58366;SDS011;57745;42.524;12.052;2024-03-29T07:15:35;22.48;;;2.97;;
58366;SDS011;57745;42.524;12.052;2024-03-29T07:18:01;14.68;;;3.05;;
58366;SDS011;57745;42.524;12.052;2024-03-29T07:20:30;24.83;;;3.22;;
58366;SDS011;57745;42.524;12.052;2024-03-29T07:22:55;23.48;;;4.30;;
58366;SDS011;57745;42.524;12.052;2024-03-29T07:25:21;18.25;;;3.75;;
58366;SDS011;57745;42.524;12.052;2024-03-29T07:27:47;28.23;;;3.70;;
58366;SDS011;57745;42.524;12.052;2024-03-29T07:30:13;18.98;;;5.07;;
58366;SDS011;57745;42.524;12.052;2024-03-29T07:32:39;19.63;;;4.40;;
58366;SDS011;57745;42.524;12.052;2024-03-29T07:35:04;12.52;;;4.15;;
58366;SDS011;57745;42.524;12.052;2024-03-29T07:37:30;22.65;;;6.68;;
58366;SDS011;57745;42.524;12.052;2024-03-29T07:39:56;25.92;;;7.15;;
58366;SDS011;57745;42.524;12.052;2024-03-29T07:42:21;20.40;;;6.40;;
58366;SDS011;57745;42.524;12.052;2024-03-29T07:44:47;23.92;;;6.82;;
58366;SDS011;57745;42.524;12.052;2024-03-29T07:47:13;23.80;;;7.30;;
58366;SDS011;57745;42.524;12.052;2024-03-29T07:49:39;21.08;;;6.45;;
58366;SDS011;57745;42.524;12.052;2024-03-29T07:52:05;19.63;;;6.10;;
58366;SDS011;57745;42.524;12.052;2024-03-29T07:54:32;26.70;;;7.00;;
58366;SDS011;57745;42.524;12.052;2024-03-29T07:56:57;19.63;;;4.90;;
58366;SDS011;57745;42.524;12.052;2024-03-29T07:59:23;18.33;;;5.53;;
58366;SDS011;57745;42.524;12.052;2024-03-29T08:01:49;18.52;;;5.50;;
58366;SDS011;57745;42.524;12.052;2024-03-29T08:04:14;40.30;;;17.67;;
58366;SDS011;57745;42.524;12.052;2024-03-29T08:06:39;29.70;;;13.13;;
58366;SDS011;57745;42.524;12.052;2024-03-29T08:09:05;43.67;;;18.75;;
58366;SDS011;57745;42.524;12.052;2024-03-29T08:11:30;73.25;;;31.75;;
58366;SDS011;57745;42.524;12.052;2024-03-29T08:13:56;62.92;;;31.92;;
58366;SDS011;57745;42.524;12.052;2024-03-29T08:16:21;57.25;;;27.92;;
58366;SDS011;57745;42.524;12.052;2024-03-29T08:18:47;40.65;;;21.30;;
58366;SDS011;57745;42.524;12.052;2024-03-29T08:21:13;32.10;;;14.20;;
58366;SDS011;57745;42.524;12.052;2024-03-29T08:23:41;30.75;;;11.10;;
58366;SDS011;57745;42.524;12.052;2024-03-29T08:26:11;25.30;;;9.38;;
58366;SDS011;57745;42.524;12.052;2024-03-29T08:28:37;23.02;;;7.10;;
58366;SDS011;57745;42.524;12.052;2024-03-29T08:31:05;24.05;;;5.25;;
58366;SDS011;57745;42.524;12.052;2024-03-29T08:33:34;20.67;;;4.72;;
58366;SDS011;57745;42.524;12.052;2024-03-29T08:36:03;21.25;;;4.18;;
58366;SDS011;57745;42.524;12.052;2024-03-29T08:38:33;17.15;;;3.53;;
58366;SDS011;57745;42.524;12.052;2024-03-29T08:40:59;23.98;;;3.95;;
58366;SDS011;57745;42.524;12.052;2024-03-29T08:43:24;22.10;;;2.85;;
58366;SDS011;57745;42.524;12.052;2024-03-29T08:45:50;21.23;;;2.92;;
58366;SDS011;57745;42.524;12.052;2024-03-29T08:48:15;23.08;;;2.70;;
58366;SDS011;57745;42.524;12.052;2024-03-29T08:50:41;22.98;;;3.05;;
58366;SDS011;57745;42.524;12.052;2024-03-29T08:53:08;23.50;;;2.95;;
58366;SDS011;57745;42.524;12.052;2024-03-29T08:55:33;25.73;;;3.97;;
58366;SDS011;57745;42.524;12.052;2024-03-29T08:58:01;23.58;;;2.78;;
58366;SDS011;57745;42.524;12.052;2024-03-29T09:00:28;17.90;;;2.80;;
58366;SDS011;57745;42.524;12.052;2024-03-29T09:02:54;24.45;;;3.63;;
58366;SDS011;57745;42.524;12.052;2024-03-29T09:05:21;20.85;;;4.03;;
58366;SDS011;57745;42.524;12.052;2024-03-29T09:07:47;23.13;;;4.05;;
58366;SDS011;57745;42.524;12.052;2024-03-29T09:10:13;31.80;;;3.67;;
58366;SDS011;57745;42.524;12.052;2024-03-29T09:12:39;32.42;;;3.95;;
58366;SDS011;57745;42.524;12.052;2024-03-29T09:15:05;28.10;;;3.50;;
58366;SDS011;57745;42.524;12.052;2024-03-29T09:17:38;33.65;;;4.03;;
58366;SDS011;57745;42.524;12.052;2024-03-29T09:20:04;21.30;;;4.30;;
58366;SDS011;57745;42.524;12.052;2024-03-29T09:22:30;27.90;;;3.70;;
58366;SDS011;57745;42.524;12.052;2024-03-29T09:24:56;27.25;;;4.15;;
58366;SDS011;57745;42.524;12.052;2024-03-29T09:27:21;27.17;;;3.85;;
58366;SDS011;57745;42.524;12.052;2024-03-29T09:29:50;34.83;;;4.07;;
58366;SDS011;57745;42.524;12.052;2024-03-29T09:32:15;30.92;;;3.40;;
58366;SDS011;57745;42.524;12.052;2024-03-29T09:34:45;35.70;;;4.93;;
58366;SDS011;57745;42.524;12.052;2024-03-29T09:37:10;31.80;;;4.45;;
58366;SDS011;57745;42.524;12.052;2024-03-29T09:39:36;33.80;;;5.78;;
58366;SDS011;57745;42.524;12.052;2024-03-29T09:42:04;27.35;;;3.85;;
58366;SDS011;57745;42.524;12.052;2024-03-29T09:44:32;35.83;;;4.53;;
58366;SDS011;57745;42.524;12.052;2024-03-29T09:47:04;26.88;;;4.45;;
58366;SDS011;57745;42.524;12.052;2024-03-29T09:49:32;29.58;;;5.35;;
58366;SDS011;57745;42.524;12.052;2024-03-29T09:51:59;28.40;;;4.03;;
58366;SDS011;57745;42.524;12.052;2024-03-29T09:54:28;44.88;;;4.28;;
58366;SDS011;57745;42.524;12.052;2024-03-29T09:56:57;46.20;;;5.97;;
58366;SDS011;57745;42.524;12.052;2024-03-29T09:59:23;29.88;;;4.15;;
58366;SDS011;57745;42.524;12.052;2024-03-29T10:01:51;41.78;;;5.13;;
58366;SDS011;57745;42.524;12.052;2024-03-29T10:04:18;37.72;;;4.55;;
58366;SDS011;57745;42.524;12.052;2024-03-29T10:06:46;37.75;;;5.43;;
58366;SDS011;57745;42.524;12.052;2024-03-29T10:09:18;49.58;;;5.50;;
58366;SDS011;57745;42.524;12.052;2024-03-29T10:11:44;41.35;;;5.35;;
58366;SDS011;57745;42.524;12.052;2024-03-29T10:14:10;46.83;;;5.95;;
58366;SDS011;57745;42.524;12.052;2024-03-29T10:16:36;48.25;;;6.10;;
58366;SDS011;57745;42.524;12.052;2024-03-29T10:19:01;46.47;;;5.60;;
58366;SDS011;57745;42.524;12.052;2024-03-29T10:21:28;64.60;;;6.68;;
58366;SDS011;57745;42.524;12.052;2024-03-29T10:23:53;48.63;;;5.63;;
58366;SDS011;57745;42.524;12.052;2024-03-29T10:26:19;45.10;;;5.55;;
58366;SDS011;57745;42.524;12.052;2024-03-29T10:28:46;48.58;;;5.55;;
58366;SDS011;57745;42.524;12.052;2024-03-29T10:31:13;61.15;;;6.40;;
58366;SDS011;57745;42.524;12.052;2024-03-29T10:33:41;47.80;;;8.07;;
58366;SDS011;57745;42.524;12.052;2024-03-29T10:36:08;58.30;;;8.02;;
58366;SDS011;57745;42.524;12.052;2024-03-29T10:38:37;59.85;;;6.53;;
58366;SDS011;57745;42.524;12.052;2024-03-29T10:41:03;62.22;;;6.38;;
58366;SDS011;57745;42.524;12.052;2024-03-29T10:43:31;61.08;;;7.45;;
58366;SDS011;57745;42.524;12.052;2024-03-29T10:45:57;70.55;;;9.30;;
58366;SDS011;57745;42.524;12.052;2024-03-29T10:48:25;60.90;;;8.25;;
58366;SDS011;57745;42.524;12.052;2024-03-29T10:50:54;68.78;;;7.32;;
58366;SDS011;57745;42.524;12.052;2024-03-29T10:53:26;68.38;;;7.55;;
58366;SDS011;57745;42.524;12.052;2024-03-29T10:55:58;62.58;;;7.28;;
58366;SDS011;57745;42.524;12.052;2024-03-29T10:58:25;73.32;;;8.85;;
58366;SDS011;57745;42.524;12.052;2024-03-29T11:01:00;68.57;;;8.40;;
58366;SDS011;57745;42.524;12.052;2024-03-29T11:03:35;76.82;;;8.45;;
58366;SDS011;57745;42.524;12.052;2024-03-29T11:06:05;69.80;;;9.57;;
58366;SDS011;57745;42.524;12.052;2024-03-29T11:08:34;78.00;;;8.80;;
58366;SDS011;57745;42.524;12.052;2024-03-29T11:11:10;82.88;;;9.82;;
58366;SDS011;57745;42.524;12.052;2024-03-29T11:13:53;76.13;;;10.57;;
58366;SDS011;57745;42.524;12.052;2024-03-29T11:16:29;74.80;;;9.38;;
58366;SDS011;57745;42.524;12.052;2024-03-29T11:18:54;64.47;;;9.45;;
58366;SDS011;57745;42.524;12.052;2024-03-29T11:21:20;88.78;;;9.57;;
58366;SDS011;57745;42.524;12.052;2024-03-29T11:23:50;95.72;;;13.07;;
58366;SDS011;57745;42.524;12.052;2024-03-29T11:26:17;80.97;;;9.52;;
58366;SDS011;57745;42.524;12.052;2024-03-29T11:28:50;73.40;;;9.65;;
58366;SDS011;57745;42.524;12.052;2024-03-29T11:31:16;77.47;;;10.43;;
58366;SDS011;57745;42.524;12.052;2024-03-29T11:36:12;80.03;;;8.82;;
58366;SDS011;57745;42.524;12.052;2024-03-29T11:38:41;96.93;;;11.30;;
58366;SDS011;57745;42.524;12.052;2024-03-29T11:43:41;82.63;;;11.45;;
58366;SDS011;57745;42.524;12.052;2024-03-29T11:46:12;94.30;;;11.82;;
58366;SDS011;57745;42.524;12.052;2024-03-29T11:48:38;81.68;;;12.35;;
58366;SDS011;57745;42.524;12.052;2024-03-29T11:51:09;84.65;;;12.48;;
58366;SDS011;57745;42.524;12.052;2024-03-29T11:53:39;68.22;;;10.48;;
58366;SDS011;57745;42.524;12.052;2024-03-29T11:56:05;100.40;;;11.32;;
58366;SDS011;57745;42.524;12.052;2024-03-29T11:58:32;91.28;;;11.30;;
58366;SDS011;57745;42.524;12.052;2024-03-29T12:00:59;73.10;;;9.95;;
58366;SDS011;57745;42.524;12.052;2024-03-29T12:03:25;74.95;;;9.65;;
58366;SDS011;57745;42.524;12.052;2024-03-29T12:05:54;73.80;;;9.68;;
58366;SDS011;57745;42.524;12.052;2024-03-29T12:08:23;78.35;;;10.27;;
58366;SDS011;57745;42.524;12.052;2024-03-29T12:10:59;77.38;;;9.65;;
58366;SDS011;57745;42.524;12.052;2024-03-29T12:13:26;66.13;;;9.25;;
58366;SDS011;57745;42.524;12.052;2024-03-29T12:15:52;67.80;;;8.65;;
58366;SDS011;57745;42.524;12.052;2024-03-29T12:18:21;65.03;;;8.60;;
58366;SDS011;57745;42.524;12.052;2024-03-29T12:20:48;82.95;;;9.98;;
58366;SDS011;57745;42.524;12.052;2024-03-29T12:23:17;72.68;;;9.95;;
58366;SDS011;57745;42.524;12.052;2024-03-29T12:25:44;74.88;;;8.65;;
58366;SDS011;57745;42.524;12.052;2024-03-29T12:28:10;74.25;;;9.95;;
58366;SDS011;57745;42.524;12.052;2024-03-29T12:30:36;94.40;;;8.32;;
58366;SDS011;57745;42.524;12.052;2024-03-29T12:33:03;68.63;;;10.25;;
58366;SDS011;57745;42.524;12.052;2024-03-29T12:35:29;74.90;;;9.52;;
58366;SDS011;57745;42.524;12.052;2024-03-29T12:37:57;87.18;;;9.80;;
58366;SDS011;57745;42.524;12.052;2024-03-29T12:40:23;77.90;;;10.85;;
58366;SDS011;57745;42.524;12.052;2024-03-29T12:42:51;78.97;;;8.13;;
58366;SDS011;57745;42.524;12.052;2024-03-29T12:45:20;67.47;;;9.70;;
58366;SDS011;57745;42.524;12.052;2024-03-29T12:47:46;82.40;;;9.27;;
58366;SDS011;57745;42.524;12.052;2024-03-29T12:50:19;73.45;;;8.85;;
58366;SDS011;57745;42.524;12.052;2024-03-29T12:52:49;80.38;;;8.70;;
58366;SDS011;57745;42.524;12.052;2024-03-29T12:55:18;60.88;;;9.48;;
58366;SDS011;57745;42.524;12.052;2024-03-29T12:57:43;86.07;;;8.88;;
58366;SDS011;57745;42.524;12.052;2024-03-29T13:00:10;81.50;;;8.32;;
58366;SDS011;57745;42.524;12.052;2024-03-29T13:02:36;60.63;;;8.75;;
58366;SDS011;57745;42.524;12.052;2024-03-29T13:05:05;80.15;;;9.82;;
58366;SDS011;57745;42.524;12.052;2024-03-29T13:07:31;64.35;;;9.38;;
58366;SDS011;57745;42.524;12.052;2024-03-29T13:09:57;54.40;;;8.50;;
58366;SDS011;57745;42.524;12.052;2024-03-29T13:12:30;72.53;;;8.57;;
58366;SDS011;57745;42.524;12.052;2024-03-29T13:14:56;71.07;;;8.68;;
58366;SDS011;57745;42.524;12.052;2024-03-29T13:17:21;70.63;;;9.40;;
58366;SDS011;57745;42.524;12.052;2024-03-29T13:19:47;73.97;;;8.27;;
58366;SDS011;57745;42.524;12.052;2024-03-29T13:22:12;66.13;;;9.40;;
58366;SDS011;57745;42.524;12.052;2024-03-29T13:24:38;63.72;;;9.68;;
58366;SDS011;57745;42.524;12.052;2024-03-29T13:27:03;62.38;;;8.32;;
58366;SDS011;57745;42.524;12.052;2024-03-29T13:29:29;63.28;;;10.20;;
58366;SDS011;57745;42.524;12.052;2024-03-29T13:31:55;72.45;;;9.93;;
58366;SDS011;57745;42.524;12.052;2024-03-29T13:34:21;64.65;;;8.13;;
58366;SDS011;57745;42.524;12.052;2024-03-29T13:36:47;78.20;;;8.93;;
58366;SDS011;57745;42.524;12.052;2024-03-29T13:39:13;59.85;;;9.10;;
58366;SDS011;57745;42.524;12.052;2024-03-29T13:41:40;55.10;;;8.25;;
58366;SDS011;57745;42.524;12.052;2024-03-29T13:44:06;59.15;;;8.60;;
58366;SDS011;57745;42.524;12.052;2024-03-29T13:46:35;51.50;;;7.32;;
58366;SDS011;57745;42.524;12.052;2024-03-29T13:49:01;52.88;;;8.05;;
58366;SDS011;57745;42.524;12.052;2024-03-29T13:51:28;56.00;;;7.80;;
58366;SDS011;57745;42.524;12.052;2024-03-29T13:53:54;51.13;;;9.05;;
58366;SDS011;57745;42.524;12.052;2024-03-29T13:56:19;51.47;;;7.97;;
58366;SDS011;57745;42.524;12.052;2024-03-29T13:58:46;57.85;;;8.93;;
58366;SDS011;57745;42.524;12.052;2024-03-29T14:01:12;59.40;;;7.35;;
58366;SDS011;57745;42.524;12.052;2024-03-29T14:03:37;49.40;;;6.97;;
58366;SDS011;57745;42.524;12.052;2024-03-29T14:06:03;57.30;;;9.35;;
58366;SDS011;57745;42.524;12.052;2024-03-29T14:08:30;58.53;;;6.55;;
58366;SDS011;57745;42.524;12.052;2024-03-29T14:10:56;60.60;;;8.27;;
58366;SDS011;57745;42.524;12.052;2024-03-29T14:13:22;42.85;;;5.63;;
58366;SDS011;57745;42.524;12.052;2024-03-29T14:15:48;49.78;;;6.57;;
58366;SDS011;57745;42.524;12.052;2024-03-29T14:18:14;48.92;;;6.20;;
58366;SDS011;57745;42.524;12.052;2024-03-29T14:20:39;45.60;;;5.45;;
58366;SDS011;57745;42.524;12.052;2024-03-29T14:23:05;54.00;;;8.18;;
58366;SDS011;57745;42.524;12.052;2024-03-29T14:25:34;46.03;;;6.22;;
58366;SDS011;57745;42.524;12.052;2024-03-29T14:28:01;39.97;;;6.45;;